createdAt,value
2019-03-28T00:01:20.099Z,10.68
2019-03-28T00:03:47.147Z,11.63
2019-03-28T00:06:14.189Z,10.28
2019-03-28T00:08:41.242Z,9.43
2019-03-28T00:11:08.635Z,11.33
2019-03-28T00:13:35.688Z,10.03
2019-03-28T00:16:02.767Z,9.28
2019-03-28T00:18:30.082Z,13.30
2019-03-28T00:20:57.438Z,13.05
2019-03-28T00:23:24.791Z,9.95
2019-03-28T00:25:53.046Z,10.40
2019-03-28T00:28:20.101Z,13.18
2019-03-28T00:30:47.143Z,11.43
2019-03-28T00:33:14.199Z,10.05
2019-03-28T00:35:41.312Z,12.60
2019-03-28T00:38:08.386Z,10.63
2019-03-28T00:40:35.423Z,9.98
2019-03-28T00:43:02.551Z,8.18
2019-03-28T00:45:29.761Z,8.33
2019-03-28T00:47:56.806Z,8.63
2019-03-28T00:50:23.865Z,10.13
2019-03-28T00:52:50.902Z,9.28
2019-03-28T00:55:18.277Z,11.93
2019-03-28T00:57:45.621Z,11.33
2019-03-28T01:00:12.972Z,8.08
2019-03-28T01:02:40.012Z,8.75
2019-03-28T01:05:07.064Z,13.70
2019-03-28T01:07:34.426Z,12.68
2019-03-28T01:10:01.778Z,9.83
2019-03-28T01:12:28.813Z,12.30
2019-03-28T01:14:56.138Z,10.20
2019-03-28T01:17:23.177Z,9.90
2019-03-28T01:19:50.605Z,11.53
2019-03-28T01:22:17.645Z,10.40
2019-03-28T01:24:45.009Z,11.25
2019-03-28T01:27:12.042Z,8.93
2019-03-28T01:29:39.092Z,8.85
2019-03-28T01:32:06.131Z,7.15
2019-03-28T01:34:33.357Z,7.58
2019-03-28T01:37:00.758Z,9.93
2019-03-28T01:39:27.877Z,7.95
2019-03-28T01:41:54.923Z,8.20
2019-03-28T01:44:22.294Z,8.93
2019-03-28T01:46:49.384Z,6.15
2019-03-28T01:49:17.370Z,9.00
2019-03-28T01:51:44.410Z,10.08
2019-03-28T01:54:11.445Z,6.75
2019-03-28T01:56:38.813Z,9.58
2019-03-28T01:59:06.171Z,9.88
2019-03-28T02:01:33.219Z,9.68
2019-03-28T02:04:00.573Z,8.30
2019-03-28T02:06:27.626Z,11.33
2019-03-28T02:08:54.974Z,8.10
2019-03-28T02:11:22.328Z,7.97
2019-03-28T02:13:50.429Z,6.62
2019-03-28T02:16:17.755Z,8.05
2019-03-28T02:18:44.794Z,10.23
2019-03-28T02:21:12.094Z,7.72
2019-03-28T02:23:39.130Z,8.85
2019-03-28T02:26:06.462Z,9.53
2019-03-28T02:28:33.506Z,10.20
2019-03-28T02:31:00.862Z,10.90
2019-03-28T02:33:28.237Z,8.60
2019-03-28T02:35:55.284Z,10.43
2019-03-28T02:38:22.565Z,8.40
2019-03-28T02:40:50.694Z,12.63
2019-03-28T02:43:18.055Z,8.15
2019-03-28T02:45:46.432Z,8.45
2019-03-28T02:48:13.788Z,10.75
2019-03-28T02:50:41.139Z,7.50
2019-03-28T02:53:08.495Z,8.68
2019-03-28T02:55:35.546Z,10.80
2019-03-28T02:58:02.587Z,11.05
2019-03-28T03:00:29.638Z,9.78
2019-03-28T03:02:56.739Z,8.15
2019-03-28T03:05:23.781Z,11.75
2019-03-28T03:07:50.810Z,11.22
2019-03-28T03:10:17.893Z,8.25
2019-03-28T03:12:45.205Z,12.03
2019-03-28T03:15:12.260Z,9.10
2019-03-28T03:17:39.297Z,10.98
2019-03-28T03:20:06.327Z,8.50
2019-03-28T03:22:33.682Z,7.28
2019-03-28T03:25:00.713Z,8.38
2019-03-28T03:27:27.778Z,11.83
2019-03-28T03:29:54.794Z,9.93
2019-03-28T03:32:22.096Z,8.58
2019-03-28T03:34:49.156Z,7.65
2019-03-28T03:37:16.480Z,9.70
2019-03-28T03:39:43.840Z,8.15
2019-03-28T03:42:11.853Z,12.13
2019-03-28T03:44:38.969Z,9.78
2019-03-28T03:47:06.314Z,9.38
2019-03-28T03:49:33.415Z,15.70
2019-03-28T03:52:00.471Z,8.80
2019-03-28T03:54:27.496Z,9.30
2019-03-28T03:56:54.816Z,10.43
2019-03-28T03:59:21.858Z,11.50
2019-03-28T04:01:49.234Z,11.95
2019-03-28T04:04:16.572Z,9.85
2019-03-28T04:06:43.622Z,10.90
2019-03-28T04:09:10.917Z,12.75
2019-03-28T04:11:38.245Z,11.83
2019-03-28T04:14:05.530Z,9.93
2019-03-28T04:16:32.938Z,13.72
2019-03-28T04:19:01.209Z,10.82
2019-03-28T04:21:28.264Z,9.03
2019-03-28T04:23:55.803Z,9.03
2019-03-28T04:26:23.104Z,13.90
2019-03-28T04:28:50.426Z,12.18
2019-03-28T04:31:18.133Z,10.08
2019-03-28T04:33:45.120Z,10.90
2019-03-28T04:36:12.398Z,13.30
2019-03-28T04:38:39.445Z,10.38
2019-03-28T04:41:06.795Z,10.53
2019-03-28T04:43:34.147Z,15.05
2019-03-28T04:46:01.181Z,23.57
2019-03-28T04:48:28.497Z,23.12
2019-03-28T04:50:55.527Z,23.30
2019-03-28T04:53:23.555Z,18.67
2019-03-28T04:55:50.925Z,17.30
2019-03-28T04:58:17.975Z,14.83
2019-03-28T05:00:45.077Z,14.95
2019-03-28T05:03:12.134Z,14.95
2019-03-28T05:05:39.163Z,12.15
2019-03-28T05:08:06.577Z,11.93
2019-03-28T05:10:33.678Z,12.33
2019-03-28T05:13:00.976Z,13.53
2019-03-28T05:15:28.009Z,12.82
2019-03-28T05:17:55.377Z,13.75
2019-03-28T05:20:22.413Z,13.38
2019-03-28T05:22:49.461Z,16.25
2019-03-28T05:25:16.747Z,13.60
2019-03-28T05:27:44.085Z,11.93
2019-03-28T05:30:11.359Z,12.18
2019-03-28T05:32:38.695Z,13.20
2019-03-28T05:35:06.065Z,14.83
2019-03-28T05:37:33.111Z,9.48
2019-03-28T05:40:00.453Z,12.70
2019-03-28T05:42:27.823Z,13.70
2019-03-28T05:44:55.163Z,14.53
2019-03-28T05:47:22.518Z,12.75
2019-03-28T05:49:49.872Z,15.98
2019-03-28T05:52:16.917Z,13.85
2019-03-28T05:54:43.967Z,12.10
2019-03-28T05:57:10.998Z,14.00
2019-03-28T05:59:38.048Z,13.98
2019-03-28T06:02:05.079Z,15.68
2019-03-28T06:04:32.132Z,13.55
2019-03-28T06:06:59.512Z,13.43
2019-03-28T06:09:26.869Z,16.97
2019-03-28T06:11:54.608Z,12.07
2019-03-28T06:14:22.216Z,19.60
2019-03-28T06:16:49.546Z,11.97
2019-03-28T06:19:16.927Z,14.68
2019-03-28T06:21:43.969Z,12.23
2019-03-28T06:24:11.323Z,15.85
2019-03-28T06:26:38.610Z,13.62
2019-03-28T06:29:08.479Z,14.93
2019-03-28T06:31:34.723Z,12.20
2019-03-28T06:34:01.775Z,15.23
2019-03-28T06:36:29.105Z,13.85
2019-03-28T06:38:56.159Z,12.68
2019-03-28T06:41:23.526Z,10.53
2019-03-28T06:43:50.584Z,13.05
2019-03-28T06:46:17.910Z,13.75
2019-03-28T06:48:45.267Z,11.20
2019-03-28T06:51:12.309Z,12.78
2019-03-28T06:53:39.355Z,10.72
2019-03-28T06:56:07.636Z,9.75
2019-03-28T06:58:34.690Z,14.73
2019-03-28T07:01:01.727Z,10.65
2019-03-28T07:03:29.106Z,12.95
2019-03-28T07:05:56.447Z,15.38
2019-03-28T07:08:25.363Z,11.90
2019-03-28T07:10:52.793Z,12.45
2019-03-28T07:13:19.830Z,12.90
2019-03-28T07:15:47.991Z,10.63
2019-03-28T07:18:15.288Z,14.03
2019-03-28T07:20:42.342Z,10.50
2019-03-28T07:23:09.379Z,14.65
2019-03-28T07:25:36.743Z,15.30
2019-03-28T07:28:06.333Z,11.75
2019-03-28T07:30:33.169Z,12.85
2019-03-28T07:33:00.207Z,12.98
2019-03-28T07:35:27.257Z,13.08
2019-03-28T07:37:54.298Z,15.13
2019-03-28T07:40:21.352Z,12.45
2019-03-28T07:42:48.384Z,11.93
2019-03-28T07:45:15.439Z,12.68
2019-03-28T07:47:42.468Z,11.12
2019-03-28T07:50:09.868Z,9.63
2019-03-28T07:52:37.222Z,12.03
2019-03-28T07:55:04.409Z,13.85
2019-03-28T07:57:32.087Z,10.28
2019-03-28T08:00:04.529Z,12.93
2019-03-28T08:02:29.526Z,13.53
2019-03-28T08:04:56.860Z,9.75
2019-03-28T08:07:23.894Z,9.35
2019-03-28T08:09:51.259Z,8.90
2019-03-28T08:12:23.041Z,10.72
2019-03-28T08:14:47.365Z,10.10
2019-03-28T08:17:14.396Z,7.20
2019-03-28T08:19:42.421Z,9.98
2019-03-28T08:22:09.460Z,11.57
2019-03-28T08:24:36.494Z,10.95
2019-03-28T08:27:03.875Z,8.75
2019-03-28T08:29:30.915Z,10.78
2019-03-28T08:31:58.278Z,8.38
2019-03-28T08:34:25.317Z,11.28
2019-03-28T08:36:52.679Z,9.25
2019-03-28T08:39:20.112Z,9.70
2019-03-28T08:41:48.643Z,9.48
2019-03-28T08:44:15.930Z,12.85
2019-03-28T08:46:42.984Z,8.93
2019-03-28T08:49:10.014Z,10.28
2019-03-28T08:51:37.063Z,9.68
2019-03-28T08:54:04.370Z,10.50
2019-03-28T08:56:31.424Z,12.75
2019-03-28T08:58:58.776Z,8.80
2019-03-28T09:01:25.825Z,9.20
2019-03-28T09:03:53.297Z,8.23
2019-03-28T09:06:20.639Z,10.65
2019-03-28T09:08:47.668Z,8.18
2019-03-28T09:11:15.958Z,8.95
2019-03-28T09:13:42.998Z,8.18
2019-03-28T09:16:10.091Z,9.60
2019-03-28T09:18:37.124Z,9.58
2019-03-28T09:21:04.431Z,10.85
2019-03-28T09:23:31.811Z,11.12
2019-03-28T09:25:59.933Z,10.50
2019-03-28T09:28:26.968Z,9.60
2019-03-28T09:30:54.032Z,9.58
2019-03-28T09:33:21.334Z,10.90
2019-03-28T09:35:48.477Z,11.15
2019-03-28T09:38:15.736Z,9.53
2019-03-28T09:40:43.109Z,10.68
2019-03-28T09:43:10.147Z,11.45
2019-03-28T09:45:37.504Z,9.45
2019-03-28T09:48:04.534Z,7.53
2019-03-28T09:50:31.898Z,14.70
2019-03-28T09:52:59.275Z,9.70
2019-03-28T09:55:26.307Z,7.78
2019-03-28T09:57:53.357Z,7.60
2019-03-28T10:00:20.398Z,11.03
2019-03-28T10:02:47.769Z,9.18
2019-03-28T10:05:14.804Z,8.60
2019-03-28T10:07:42.153Z,9.23
2019-03-28T10:10:09.447Z,9.15
2019-03-28T10:12:36.523Z,7.17
2019-03-28T10:15:03.567Z,12.82
2019-03-28T10:17:30.962Z,10.28
2019-03-28T10:19:58.318Z,8.45
2019-03-28T10:22:25.680Z,8.68
2019-03-28T10:24:52.726Z,11.20
2019-03-28T10:27:20.080Z,10.72
2019-03-28T10:29:47.199Z,8.10
2019-03-28T10:32:14.572Z,8.40
2019-03-28T10:34:41.604Z,6.70
2019-03-28T10:37:08.695Z,7.12
2019-03-28T10:39:36.061Z,8.23
2019-03-28T10:42:03.154Z,7.50
2019-03-28T10:44:30.569Z,5.62
2019-03-28T10:46:57.930Z,8.30
2019-03-28T10:49:25.280Z,7.67
2019-03-28T10:51:53.763Z,8.48
2019-03-28T10:54:21.068Z,8.80
2019-03-28T10:56:52.182Z,5.83
2019-03-28T10:59:23.630Z,6.70
2019-03-28T11:01:50.492Z,6.95
2019-03-28T11:04:15.859Z,6.97
2019-03-28T11:06:43.316Z,8.30
2019-03-28T11:09:10.388Z,8.20
2019-03-28T11:11:37.474Z,8.65
2019-03-28T11:14:04.550Z,7.87
2019-03-28T11:16:31.923Z,7.85
2019-03-28T11:18:58.995Z,8.35
2019-03-28T11:21:26.426Z,9.30
2019-03-28T11:23:53.889Z,6.40
2019-03-28T11:26:21.012Z,8.08
2019-03-28T11:28:48.413Z,6.70
2019-03-28T11:31:15.845Z,9.95
2019-03-28T11:33:43.309Z,7.95
2019-03-28T11:36:10.659Z,9.28
2019-03-28T11:38:37.745Z,8.60
2019-03-28T11:41:05.162Z,8.60
2019-03-28T11:43:32.261Z,7.50
2019-03-28T11:45:59.667Z,7.20
2019-03-28T11:48:27.127Z,10.78
2019-03-28T11:50:54.203Z,9.93
2019-03-28T11:53:21.292Z,13.10
2019-03-28T11:55:49.084Z,10.88
2019-03-28T11:58:16.342Z,13.28
2019-03-28T12:00:43.678Z,10.90
2019-03-28T12:03:10.771Z,12.60
2019-03-28T12:05:37.847Z,10.28
2019-03-28T12:08:04.935Z,11.75
2019-03-28T12:10:32.014Z,12.88
2019-03-28T12:12:59.449Z,14.10
2019-03-28T12:15:26.530Z,15.72
2019-03-28T12:17:53.954Z,13.55
2019-03-28T12:20:21.041Z,13.48
2019-03-28T12:22:49.515Z,12.82
2019-03-28T12:25:16.944Z,15.32
2019-03-28T12:27:44.023Z,14.58
2019-03-28T12:30:11.449Z,12.78
2019-03-28T12:32:38.933Z,12.95
2019-03-28T12:35:06.083Z,12.68
2019-03-28T12:37:34.564Z,14.15
2019-03-28T12:40:01.752Z,11.97
2019-03-28T12:42:28.842Z,14.33
2019-03-28T12:44:57.280Z,14.45
2019-03-28T12:47:24.705Z,11.40
2019-03-28T12:49:52.043Z,14.28
2019-03-28T12:52:19.117Z,13.48
2019-03-28T12:54:46.208Z,15.30
2019-03-28T12:57:14.590Z,15.43
2019-03-28T12:59:41.813Z,14.03
2019-03-28T13:02:08.888Z,15.20
2019-03-28T13:04:36.271Z,17.20
2019-03-28T13:07:03.345Z,18.20
2019-03-28T13:09:30.766Z,15.35
2019-03-28T13:11:58.147Z,10.78
2019-03-28T13:14:25.237Z,15.20
2019-03-28T13:16:52.655Z,11.78
2019-03-28T13:19:20.010Z,13.08
2019-03-28T13:21:48.466Z,15.72
2019-03-28T13:24:15.948Z,15.65
2019-03-28T13:26:43.025Z,14.43
2019-03-28T13:29:10.231Z,11.70
2019-03-28T13:31:37.364Z,12.20
2019-03-28T13:34:04.453Z,11.57
2019-03-28T13:36:31.536Z,11.10
2019-03-28T13:38:58.925Z,13.50
2019-03-28T13:41:26.113Z,8.33
2019-03-28T13:43:53.304Z,9.18
2019-03-28T13:46:20.708Z,10.48
2019-03-28T13:48:47.799Z,8.75
2019-03-28T13:51:14.871Z,8.80
2019-03-28T13:53:41.966Z,9.78
2019-03-28T13:56:09.400Z,7.05
2019-03-28T13:58:36.849Z,8.93
2019-03-28T14:01:04.006Z,9.88
2019-03-28T14:03:31.090Z,10.25
2019-03-28T14:05:58.511Z,11.55
2019-03-28T14:08:25.597Z,12.98
2019-03-28T14:10:53.007Z,8.13
2019-03-28T14:13:20.080Z,10.65
2019-03-28T14:15:48.539Z,9.35
2019-03-28T14:18:15.617Z,8.95
2019-03-28T14:20:42.927Z,11.97
2019-03-28T14:23:10.527Z,8.83
2019-03-28T14:25:37.958Z,10.10
2019-03-28T14:28:05.034Z,9.83
2019-03-28T14:30:32.465Z,12.30
2019-03-28T14:33:10.601Z,8.55
2019-03-28T14:35:29.021Z,13.72
2019-03-28T14:37:56.378Z,12.53
2019-03-28T14:40:23.854Z,10.35
2019-03-28T14:42:51.308Z,12.85
2019-03-28T14:45:18.407Z,12.43
2019-03-28T14:47:45.485Z,11.60
2019-03-28T14:50:12.692Z,13.18
2019-03-28T14:52:39.730Z,11.57
2019-03-28T14:55:07.141Z,9.65
2019-03-28T14:57:34.217Z,12.13
2019-03-28T15:00:01.309Z,9.88
2019-03-28T15:02:28.897Z,14.20
2019-03-28T15:04:56.356Z,11.08
2019-03-28T15:07:23.424Z,9.10
2019-03-28T15:09:50.887Z,13.48
2019-03-28T15:12:17.956Z,9.50
2019-03-28T15:14:45.046Z,10.68
2019-03-28T15:17:12.127Z,11.08
2019-03-28T15:19:39.217Z,5.08
2019-03-28T15:22:06.285Z,5.67
2019-03-28T15:24:33.360Z,7.28
2019-03-28T15:27:01.129Z,10.23
2019-03-28T15:29:28.599Z,6.87
2019-03-28T15:31:55.678Z,5.92
2019-03-28T15:34:22.752Z,5.87
2019-03-28T15:36:49.842Z,10.05
2019-03-28T15:39:16.917Z,4.97
2019-03-28T15:41:44.272Z,27.45
2019-03-28T15:44:11.783Z,5.33
2019-03-28T15:46:38.878Z,16.10
2019-03-28T15:49:06.290Z,10.13
2019-03-28T15:51:33.771Z,8.38
2019-03-28T15:54:01.230Z,10.13
2019-03-28T15:56:28.661Z,17.80
2019-03-28T15:58:56.046Z,5.83
2019-03-28T16:01:23.502Z,8.75
2019-03-28T16:03:53.347Z,9.95
2019-03-28T16:06:22.309Z,7.03
2019-03-28T16:08:48.843Z,10.40
2019-03-28T16:11:15.924Z,7.03
2019-03-28T16:13:43.424Z,2.65
2019-03-28T16:16:10.570Z,4.75
2019-03-28T16:18:37.657Z,9.55
2019-03-28T16:21:04.832Z,4.87
2019-03-28T16:23:31.918Z,7.37
2019-03-28T16:25:59.019Z,6.70
2019-03-28T16:28:28.152Z,5.25
2019-03-28T16:30:54.910Z,3.77
2019-03-28T16:33:21.995Z,4.65
2019-03-28T16:35:49.350Z,29.02
2019-03-28T16:38:17.794Z,9.98
2019-03-28T16:40:45.279Z,4.58
2019-03-28T16:43:12.733Z,3.77
2019-03-28T16:45:40.192Z,7.17
2019-03-28T16:48:07.624Z,3.77
2019-03-28T16:50:35.081Z,2.40
2019-03-28T16:53:02.198Z,5.53
2019-03-28T16:55:29.284Z,4.08
2019-03-28T16:57:56.762Z,3.58
2019-03-28T17:00:23.837Z,3.85
2019-03-28T17:02:51.270Z,2.65
2019-03-28T17:05:18.350Z,3.17
2019-03-28T17:07:45.752Z,3.75
2019-03-28T17:10:12.831Z,3.87
2019-03-28T17:12:40.179Z,4.37
2019-03-28T17:15:07.611Z,3.20
2019-03-28T17:17:38.316Z,5.30
2019-03-28T17:20:03.650Z,3.35
2019-03-28T17:22:31.107Z,4.10
2019-03-28T17:24:58.195Z,5.35
2019-03-28T17:27:25.291Z,3.92
2019-03-28T17:29:52.663Z,4.72
2019-03-28T17:32:20.122Z,3.62
2019-03-28T17:34:47.578Z,4.10
2019-03-28T17:37:15.033Z,6.22
2019-03-28T17:39:42.111Z,3.77
2019-03-28T17:42:10.588Z,3.52
2019-03-28T17:44:37.669Z,4.05
2019-03-28T17:47:05.072Z,5.00
2019-03-28T17:49:32.154Z,3.37
2019-03-28T17:51:59.471Z,2.98
2019-03-28T17:54:26.554Z,2.42
2019-03-28T17:56:53.713Z,4.37
2019-03-28T17:59:20.862Z,4.37
2019-03-28T18:01:48.282Z,6.33
2019-03-28T18:04:22.649Z,3.77
2019-03-28T18:06:44.268Z,4.30
2019-03-28T18:09:11.640Z,3.60
2019-03-28T18:11:39.132Z,3.35
2019-03-28T18:14:06.588Z,4.55
2019-03-28T18:16:34.223Z,2.95
2019-03-28T18:19:01.384Z,5.62
2019-03-28T18:21:29.539Z,4.40
2019-03-28T18:23:57.054Z,4.37
2019-03-28T18:26:24.171Z,3.20
2019-03-28T18:28:51.238Z,5.00
2019-03-28T18:31:18.320Z,3.62
2019-03-28T18:33:45.419Z,3.25
2019-03-28T18:36:12.496Z,4.78
2019-03-28T18:38:39.585Z,3.08
2019-03-28T18:41:06.759Z,3.42
2019-03-28T18:43:34.154Z,3.85
2019-03-28T18:46:01.591Z,4.58
2019-03-28T18:48:35.930Z,4.03
2019-03-28T18:50:57.837Z,3.60
2019-03-28T18:53:24.928Z,5.25
2019-03-28T18:55:52.345Z,6.35
2019-03-28T18:58:19.445Z,9.28
2019-03-28T19:00:48.267Z,4.83
2019-03-28T19:03:15.317Z,3.40
2019-03-28T19:05:42.684Z,5.35
2019-03-28T19:08:10.063Z,3.85
2019-03-28T19:10:37.862Z,4.83
2019-03-28T19:13:05.597Z,4.55
2019-03-28T19:15:32.663Z,6.58
2019-03-28T19:17:59.995Z,4.33
2019-03-28T19:20:28.356Z,3.77
2019-03-28T19:22:55.809Z,6.85
2019-03-28T19:25:23.266Z,7.95
2019-03-28T19:27:50.360Z,5.17
2019-03-28T19:30:17.441Z,4.30
2019-03-28T19:32:44.534Z,6.25
2019-03-28T19:35:11.604Z,8.30
2019-03-28T19:37:38.948Z,6.80
2019-03-28T19:40:07.029Z,6.67
2019-03-28T19:42:34.447Z,4.80
2019-03-28T19:45:01.544Z,5.97
2019-03-28T19:47:28.833Z,5.35
2019-03-28T19:49:55.884Z,9.10
2019-03-28T19:52:22.967Z,12.25
2019-03-28T19:54:50.074Z,14.53
2019-03-28T19:57:17.154Z,13.62
2019-03-28T19:59:44.265Z,10.85
2019-03-28T20:02:14.093Z,9.50
2019-03-28T20:04:40.461Z,15.15
2019-03-28T20:07:20.982Z,8.83
2019-03-28T20:09:36.989Z,9.93
2019-03-28T20:12:05.375Z,9.35
2019-03-28T20:14:33.029Z,8.50
2019-03-28T20:17:00.486Z,7.42
2019-03-28T20:19:28.936Z,7.78
2019-03-28T20:21:59.477Z,8.48
2019-03-28T20:24:26.206Z,7.50
2019-03-28T20:26:54.369Z,9.48
2019-03-28T20:29:21.457Z,9.43
2019-03-28T20:31:48.819Z,8.10
2019-03-28T20:34:15.910Z,7.00
2019-03-28T20:36:44.183Z,6.53
2019-03-28T20:39:11.476Z,6.83
2019-03-28T20:41:38.725Z,8.63
2019-03-28T20:44:05.819Z,6.22
2019-03-28T20:46:33.254Z,6.53
2019-03-28T20:49:00.711Z,6.30
2019-03-28T20:51:28.090Z,5.35
2019-03-28T20:53:55.531Z,6.83
2019-03-28T20:56:23.118Z,5.72
2019-03-28T20:58:50.163Z,6.95
2019-03-28T21:01:17.258Z,8.68
2019-03-28T21:03:44.331Z,5.87
2019-03-28T21:06:15.487Z,6.22
2019-03-28T21:08:40.577Z,6.67
2019-03-28T21:11:07.670Z,7.83
2019-03-28T21:13:35.356Z,7.03
2019-03-28T21:16:03.357Z,6.92
2019-03-28T21:18:30.449Z,7.12
2019-03-28T21:20:57.871Z,8.05
2019-03-28T21:23:25.216Z,7.78
2019-03-28T21:25:52.299Z,6.80
2019-03-28T21:28:19.336Z,6.55
2019-03-28T21:30:47.958Z,6.78
2019-03-28T21:33:15.741Z,7.08
2019-03-28T21:35:43.089Z,7.37
2019-03-28T21:38:10.443Z,7.20
2019-03-28T21:40:38.463Z,8.80
2019-03-28T21:43:05.504Z,10.40
2019-03-28T21:45:32.563Z,7.03
2019-03-28T21:47:59.868Z,6.92
2019-03-28T21:50:27.614Z,8.73
2019-03-28T21:52:55.005Z,7.75
2019-03-28T21:55:22.052Z,8.15
2019-03-28T21:57:49.085Z,7.67
2019-03-28T22:00:16.437Z,7.03
2019-03-28T22:02:43.472Z,9.50
2019-03-28T22:05:10.584Z,8.60
2019-03-28T22:07:37.613Z,9.78
2019-03-28T22:10:08.352Z,8.33
2019-03-28T22:12:33.746Z,9.80
2019-03-28T22:15:01.081Z,7.90
2019-03-28T22:17:28.538Z,10.00
2019-03-28T22:19:55.600Z,9.88
2019-03-28T22:22:22.618Z,12.43
2019-03-28T22:24:49.989Z,8.45
2019-03-28T22:27:17.039Z,7.95
2019-03-28T22:29:44.316Z,13.00
2019-03-28T22:32:11.961Z,10.15
2019-03-28T22:34:39.109Z,9.08
2019-03-28T22:37:06.409Z,12.20
2019-03-28T22:39:33.433Z,8.40
2019-03-28T22:42:00.775Z,8.80
2019-03-28T22:44:27.808Z,9.10
2019-03-28T22:46:55.161Z,10.45
2019-03-28T22:49:22.193Z,10.53
2019-03-28T22:51:49.561Z,7.72
2019-03-28T22:54:16.591Z,7.87
2019-03-28T22:56:43.989Z,9.48
2019-03-28T22:59:11.989Z,14.07
2019-03-28T23:01:39.129Z,9.00
2019-03-28T23:04:06.645Z,14.25
2019-03-28T23:06:33.698Z,12.73
2019-03-28T23:09:00.733Z,8.63
2019-03-28T23:11:29.399Z,8.60
2019-03-28T23:13:56.432Z,11.73
2019-03-28T23:16:23.779Z,9.25
2019-03-28T23:18:51.411Z,13.70
2019-03-28T23:21:18.542Z,10.28
2019-03-28T23:23:45.898Z,14.58
2019-03-28T23:26:13.190Z,10.28
2019-03-28T23:28:40.504Z,10.85
2019-03-28T23:31:07.625Z,14.73
2019-03-28T23:33:35.026Z,9.05
2019-03-28T23:36:02.073Z,9.48
2019-03-28T23:38:29.418Z,12.18
2019-03-28T23:40:56.768Z,9.85
2019-03-28T23:43:23.804Z,10.98
2019-03-28T23:45:50.859Z,9.58
2019-03-28T23:48:18.136Z,10.78
2019-03-28T23:50:45.170Z,9.00
2019-03-28T23:53:12.527Z,12.45
2019-03-28T23:55:39.873Z,13.20
2019-03-28T23:58:07.228Z,10.25
